Time;durP1;ratioP1;P1;durP2;ratioP2;P2;SDS_P1;SDS_P2;PMS_P1;PMS_P2;Temp;Humidity;BMP_temperature;BMP_pressure;BME280_temperature;BME280_humidity;BME280_pressure;Samples;Min_cycle;Max_cycle;Signal;HPM_P1;HPM_P2
2022/07/27 00:01:40;;;;;;;14.93;6.28;;;;;;;30.96;54.02;100590.75;5026216;28;20075;-79
2022/07/27 00:04:17;;;;;;;9.43;6.13;;;;;;;31.02;53.25;100586.91;5027147;28;20236;-79
2022/07/27 00:06:45;;;;;;;9.80;6.07;;;;;;;31.02;53.50;100575.94;5026537;28;20053;-78
2022/07/27 00:09:12;;;;;;;10.45;5.75;;;;;;;30.82;53.97;100566.56;5026554;28;20057;-79
2022/07/27 00:11:39;;;;;;;9.18;5.97;;;;;;;30.60;54.94;100566.00;5026273;28;20055;-80
2022/07/27 00:14:05;;;;;;;12.63;5.45;;;;;;;30.63;55.07;100576.41;5027312;28;20917;-77
2022/07/27 00:16:32;;;;;;;9.85;5.72;;;;;;;30.53;55.20;100571.72;5026495;28;20073;-78
2022/07/27 00:18:58;;;;;;;10.50;5.75;;;;;;;30.28;55.79;100572.47;5026221;28;20061;-78
2022/07/27 00:21:25;;;;;;;9.63;5.72;;;;;;;30.17;55.96;100565.28;5026126;28;20049;-78
2022/07/27 00:23:53;;;;;;;11.30;5.78;;;;;;;30.22;56.38;100576.25;5026396;28;20053;-78
2022/07/27 00:26:20;;;;;;;10.20;5.43;;;;;;;30.13;56.55;100584.16;5027449;28;20053;-78
2022/07/27 00:28:47;;;;;;;15.13;6.00;;;;;;;29.83;56.72;100543.78;5026922;28;20491;-78
2022/07/27 00:31:14;;;;;;;13.48;5.70;;;;;;;30.07;56.84;100598.09;5044766;28;20506;-79
2022/07/27 00:33:41;;;;;;;14.30;5.65;;;;;;;29.89;57.48;100611.13;5045927;28;20084;-79
2022/07/27 00:36:07;;;;;;;12.57;6.28;;;;;;;28.90;57.71;100468.50;5046029;28;20190;-77
2022/07/27 00:38:34;;;;;;;13.32;6.82;;;;;;;29.65;58.20;100618.88;5047123;28;20072;-78
2022/07/27 00:41:00;;;;;;;9.68;6.00;;;;;;;29.40;58.77;100603.13;5045800;28;20453;-79
2022/07/27 00:43:27;;;;;;;10.85;5.97;;;;;;;29.37;58.66;100625.50;5046138;28;20048;-79
2022/07/27 00:45:54;;;;;;;14.30;6.60;;;;;;;29.35;58.52;100633.16;5045737;28;20510;-77
2022/07/27 00:48:20;;;;;;;13.95;6.93;;;;;;;29.38;58.91;100647.13;5045330;28;20088;-78
2022/07/27 00:50:49;;;;;;;12.80;6.60;;;;;;;29.37;58.99;100645.47;5045789;28;20128;-79
2022/07/27 00:53:16;;;;;;;9.75;6.45;;;;;;;29.36;58.43;100610.19;5041212;28;20137;-78
2022/07/27 00:55:44;;;;;;;15.15;7.43;;;;;;;29.43;58.23;100638.13;5025531;28;20214;-77
2022/07/27 00:58:11;;;;;;;11.27;7.38;;;;;;;29.40;58.52;100658.63;5026820;28;20053;-79
2022/07/27 01:00:38;;;;;;;12.98;8.65;;;;;;;28.38;58.49;100517.44;5025423;28;20139;-78
2022/07/27 01:03:05;;;;;;;15.00;7.13;;;;;;;29.34;57.55;100686.19;5025338;28;20060;-78
2022/07/27 01:05:35;;;;;;;13.60;7.05;;;;;;;28.99;57.78;100668.31;5025578;28;20049;-78
2022/07/27 01:08:06;;;;;;;18.60;7.68;;;;;;;28.89;57.66;100674.50;5025517;28;20057;-79
2022/07/27 01:10:34;;;;;;;12.23;7.20;;;;;;;28.98;57.52;100704.91;5025433;28;20045;-78
2022/07/27 01:13:01;;;;;;;14.32;8.10;;;;;;;28.97;57.26;100706.81;5025524;28;20053;-78
2022/07/27 01:15:28;;;;;;;9.52;8.40;;;;;;;28.76;56.76;100689.38;5025525;28;20050;-79
2022/07/27 01:17:55;;;;;;;15.82;8.65;;;;;;;28.70;56.81;100703.22;5025827;28;20057;-79
2022/07/27 01:20:22;;;;;;;13.20;8.43;;;;;;;28.62;57.09;100707.25;5025510;28;20336;-79
2022/07/27 01:22:48;;;;;;;15.48;8.57;;;;;;;28.62;57.31;100718.16;5025717;28;20561;-77
2022/07/27 01:25:15;;;;;;;11.75;8.32;;;;;;;28.44;57.52;100693.84;5025731;28;20114;-79
2022/07/27 01:27:41;;;;;;;10.88;8.18;;;;;;;28.47;57.43;100704.28;5025065;28;20553;-79
2022/07/27 01:30:28;;;;;;;14.35;7.65;;;;;;;28.67;57.42;100731.88;5035007;28;20056;-79
2022/07/27 01:33:03;;;;;;;15.32;7.95;;;;;;;28.73;55.90;100757.34;5045595;28;20479;-78
2022/07/27 01:35:31;;;;;;;19.70;8.20;;;;;;;28.37;53.26;100725.97;5046913;28;20044;-77
2022/07/27 01:37:59;;;;;;;19.98;6.65;;;;;;;28.44;52.95;100748.47;5048999;28;20098;-78
2022/07/27 01:40:25;;;;;;;28.13;7.40;;;;;;;28.18;52.16;100750.84;5055341;28;20044;-80
2022/07/27 01:42:52;;;;;;;22.00;6.63;;;;;;;28.12;52.34;100779.94;5050526;28;20056;-78
2022/07/27 01:45:20;;;;;;;22.30;6.45;;;;;;;28.06;51.09;100818.28;5047806;28;20110;-78
2022/07/27 01:47:47;;;;;;;17.48;5.75;;;;;;;27.87;51.09;100813.09;5046730;28;20056;-80
2022/07/27 01:50:14;;;;;;;21.15;5.32;;;;;;;27.63;52.26;100796.00;5044612;28;20107;-79
2022/07/27 01:52:40;;;;;;;16.77;4.85;;;;;;;27.54;52.66;100835.63;5043910;28;20234;-80
2022/07/27 01:55:09;;;;;;;17.52;3.63;;;;;;;27.03;53.60;100840.84;5025536;28;20111;-76
2022/07/27 01:57:37;;;;;;;10.20;4.22;;;;;;;26.43;55.33;100813.84;5024964;28;20376;-77
2022/07/27 02:00:06;;;;;;;11.88;4.13;;;;;;;26.50;55.66;100849.13;5024868;28;20143;-77
2022/07/27 02:02:32;;;;;;;11.98;4.10;;;;;;;26.49;56.20;100853.75;5025054;28;20580;-77
2022/07/27 02:04:59;;;;;;;9.32;3.75;;;;;;;26.33;56.25;100838.94;5025231;28;20060;-79
2022/07/27 02:07:26;;;;;;;7.90;3.72;;;;;;;26.37;56.53;100850.19;5026778;28;20052;-77
2022/07/27 02:09:52;;;;;;;9.32;4.15;;;;;;;26.10;57.06;100823.41;5025642;28;20158;-77
2022/07/27 02:12:34;;;;;;;10.30;4.15;;;;;;;26.33;56.84;100840.84;5025519;28;20053;-77
2022/07/27 02:15:13;;;;;;;7.55;4.22;;;;;;;26.17;57.33;100818.69;5025702;28;20123;-78
2022/07/27 02:17:44;;;;;;;10.60;4.30;;;;;;;25.59;57.40;100721.50;5027201;28;20058;-78
2022/07/27 02:20:14;;;;;;;10.20;4.50;;;;;;;26.12;57.46;100810.41;5028899;28;20050;-76
2022/07/27 02:22:41;;;;;;;8.10;4.45;;;;;;;25.92;57.98;100805.28;5028971;28;20351;-78
2022/07/27 02:25:09;;;;;;;10.40;5.03;;;;;;;25.78;58.07;100796.47;5030614;28;20099;-77
2022/07/27 02:27:37;;;;;;;9.70;4.55;;;;;;;25.62;58.90;100793.59;5028992;28;20089;-76
2022/07/27 02:30:05;;;;;;;8.23;6.10;;;;;;;25.57;58.74;100786.13;5037740;28;20088;-76
2022/07/27 02:32:32;;;;;;;9.48;4.93;;;;;;;25.60;59.13;100807.41;5048351;28;20450;-76
2022/07/27 02:34:59;;;;;;;9.15;4.95;;;;;;;25.47;59.11;100794.84;5048427;28;20057;-76
2022/07/27 02:37:28;;;;;;;13.13;6.20;;;;;;;25.50;59.40;100801.69;5049407;28;20051;-77
2022/07/27 02:39:55;;;;;;;8.35;5.47;;;;;;;25.41;59.25;100805.78;5048664;28;20137;-77
2022/07/27 02:42:21;;;;;;;10.55;5.00;;;;;;;25.55;59.44;100820.84;5048654;28;20052;-77
2022/07/27 02:44:48;;;;;;;8.82;4.82;;;;;;;25.62;59.87;100824.31;5048540;28;20287;-77
2022/07/27 02:47:15;;;;;;;9.82;5.97;;;;;;;25.82;58.59;100831.34;5048346;28;20045;-76
2022/07/27 02:49:41;;;;;;;11.27;5.68;;;;;;;25.70;58.76;100823.16;5049325;28;20103;-76
2022/07/27 02:52:09;;;;;;;6.78;4.75;;;;;;;25.39;59.36;100781.59;5048386;28;20053;-78
2022/07/27 02:54:35;;;;;;;8.32;5.45;;;;;;;25.55;59.00;100816.25;5031351;28;20510;-76
2022/07/27 02:57:03;;;;;;;8.88;5.32;;;;;;;25.46;59.43;100825.78;5028066;28;20496;-77
2022/07/27 02:59:30;;;;;;;9.23;5.57;;;;;;;25.13;59.46;100780.00;5028530;28;20077;-77
2022/07/27 03:01:57;;;;;;;7.45;5.25;;;;;;;25.40;59.39;100794.09;5028685;28;20057;-76
2022/07/27 03:04:24;;;;;;;5.38;4.50;;;;;;;25.66;59.94;100835.56;5028141;28;20047;-76
2022/07/27 03:06:52;;;;;;;7.03;4.88;;;;;;;25.78;58.46;100828.28;5027700;28;20578;-78
2022/07/27 03:09:18;;;;;;;12.52;6.05;;;;;;;25.72;58.49;100837.34;5027614;28;20533;-77
2022/07/27 03:11:58;;;;;;;9.82;5.97;;;;;;;25.46;59.12;100824.94;5028038;28;20046;-77
2022/07/27 03:14:24;;;;;;;5.68;4.38;;;;;;;25.65;59.81;100829.28;5028171;28;20045;-78
2022/07/27 03:16:51;;;;;;;7.10;5.68;;;;;;;25.33;58.81;100764.28;5028117;28;20354;-78
2022/07/27 03:19:18;;;;;;;9.57;5.55;;;;;;;25.66;58.15;100792.91;5028008;28;20469;-78
2022/07/27 03:21:45;;;;;;;7.22;5.38;;;;;;;25.62;58.56;100799.84;5027498;28;20069;-76
2022/07/27 03:24:11;;;;;;;11.57;6.10;;;;;;;25.46;58.28;100759.72;5027973;28;20054;-78
2022/07/27 03:26:38;;;;;;;9.77;6.18;;;;;;;25.18;58.29;100720.41;5027539;28;20339;-78
2022/07/27 03:29:04;;;;;;;9.55;5.25;;;;;;;25.59;58.81;100790.28;5026549;28;20452;-77
2022/07/27 03:31:31;;;;;;;7.75;5.25;;;;;;;25.56;58.77;100776.31;5047156;28;20141;-78
2022/07/27 03:33:58;;;;;;;8.35;5.82;;;;;;;25.60;58.49;100763.91;5048412;28;20080;-77
2022/07/27 03:36:25;;;;;;;10.30;5.45;;;;;;;25.76;58.14;100785.00;5049959;28;20132;-77
2022/07/27 03:38:51;;;;;;;10.32;5.35;;;;;;;25.78;58.05;100773.91;5053678;28;20075;-79
2022/07/27 03:41:18;;;;;;;6.18;5.13;;;;;;;25.69;57.96;100751.66;5055669;28;20061;-79
2022/07/27 03:43:44;;;;;;;11.07;5.13;;;;;;;25.59;57.52;100718.78;5048676;28;20499;-78
2022/07/27 03:46:11;;;;;;;10.00;5.00;;;;;;;25.73;57.81;100763.72;5047050;28;20134;-78
2022/07/27 03:48:39;;;;;;;5.95;4.43;;;;;;;25.61;57.55;100727.53;5048498;28;20504;-76
2022/07/27 03:51:06;;;;;;;6.18;4.38;;;;;;;25.65;58.01;100747.72;5047056;28;20045;-80
2022/07/27 03:53:32;;;;;;;8.77;5.18;;;;;;;25.60;58.04;100739.44;5038954;28;20038;-78
2022/07/27 03:55:59;;;;;;;7.65;5.15;;;;;;;25.36;58.02;100684.19;5028336;28;20053;-77
2022/07/27 03:58:25;;;;;;;5.32;4.80;;;;;;;25.83;57.37;100740.53;5026917;28;20072;-78
2022/07/27 04:00:52;;;;;;;8.68;5.57;;;;;;;25.69;57.58;100737.22;5026997;28;20067;-77
2022/07/27 04:03:19;;;;;;;8.25;5.05;;;;;;;25.64;57.61;100729.78;5028395;28;20132;-77
2022/07/27 04:05:45;;;;;;;5.88;4.85;;;;;;;25.53;57.65;100715.06;5027049;28;20093;-77
2022/07/27 04:08:12;;;;;;;10.50;5.00;;;;;;;25.43;57.59;100719.44;5026788;28;20041;-77
2022/07/27 04:10:39;;;;;;;5.50;4.70;;;;;;;25.31;57.40;100695.75;5027017;28;20240;-79
2022/07/27 04:13:07;;;;;;;6.20;4.90;;;;;;;25.71;57.61;100754.97;5026708;28;20053;-77
2022/07/27 04:15:34;;;;;;;5.65;5.10;;;;;;;25.67;57.24;100732.03;5027012;28;20053;-78
2022/07/27 04:18:00;;;;;;;7.10;5.18;;;;;;;25.88;57.07;100746.16;5026883;28;20072;-78
2022/07/27 04:20:27;;;;;;;7.22;4.80;;;;;;;25.92;56.81;100758.22;5026264;28;20053;-78
2022/07/27 04:22:54;;;;;;;6.82;4.85;;;;;;;25.83;57.04;100754.16;5026337;28;20045;-78
2022/07/27 04:25:21;;;;;;;5.65;4.57;;;;;;;25.83;57.50;100763.16;5027384;28;20077;-78
2022/07/27 04:27:48;;;;;;;5.78;4.85;;;;;;;25.77;56.79;100734.97;5026403;28;20146;-78
2022/07/27 04:30:14;;;;;;;9.55;4.63;;;;;;;25.90;56.58;100738.56;5038380;28;20102;-77
2022/07/27 04:32:41;;;;;;;4.45;4.05;;;;;;;25.92;57.28;100701.09;5046416;28;20173;-77
2022/07/27 04:35:08;;;;;;;8.73;4.88;;;;;;;26.22;56.39;100718.16;5045863;28;20048;-77
2022/07/27 04:37:35;;;;;;;7.03;5.03;;;;;;;26.39;55.59;100750.09;5046133;28;20427;-77
2022/07/27 04:40:02;;;;;;;8.77;5.05;;;;;;;25.86;55.62;100688.47;5045500;28;20049;-78
2022/07/27 04:42:29;;;;;;;7.30;5.22;;;;;;;26.01;55.72;100729.63;5034452;28;20499;-78
2022/07/27 04:44:56;;;;;;;8.32;4.35;;;;;;;25.93;56.35;100711.75;5025039;28;20052;-78
2022/07/27 04:47:22;;;;;;;26.75;17.88;;;;;;;26.16;55.90;100743.56;5026460;28;20133;-77
2022/07/27 04:49:49;;;;;;;7.07;4.75;;;;;;;26.17;55.76;100750.69;5024682;28;20585;-78
2022/07/27 04:52:16;;;;;;;7.80;5.75;;;;;;;26.19;55.64;100756.72;5024764;28;20053;-78
2022/07/27 04:54:44;;;;;;;7.22;4.88;;;;;;;25.71;55.44;100683.47;5026248;28;20052;-78
2022/07/27 04:57:10;;;;;;;6.85;5.22;;;;;;;25.76;55.65;100708.88;5024791;28;20100;-78
2022/07/27 04:59:37;;;;;;;6.68;5.30;;;;;;;25.99;55.92;100757.03;5028080;28;20124;-78
2022/07/27 05:02:04;;;;;;;14.15;10.95;;;;;;;25.80;56.37;100731.81;5027119;28;20517;-80
2022/07/27 05:04:30;;;;;;;5.93;5.32;;;;;;;25.91;56.29;100740.25;5035007;28;20139;-80
2022/07/27 05:06:57;;;;;;;10.80;5.25;;;;;;;25.60;56.38;100693.22;5043879;28;20072;-78
2022/07/27 05:09:23;;;;;;;5.43;4.90;;;;;;;25.69;56.46;100710.03;5031983;28;20049;-79
2022/07/27 05:11:50;;;;;;;6.80;4.63;;;;;;;25.62;55.60;100685.69;5025712;28;20049;-78
2022/07/27 05:14:18;;;;;;;7.28;4.90;;;;;;;26.04;55.35;100729.13;5025944;28;20127;-78
2022/07/27 05:16:47;;;;;;;6.88;4.57;;;;;;;25.89;55.46;100709.75;5024690;28;20474;-79
2022/07/27 05:19:14;;;;;;;7.97;4.65;;;;;;;26.00;55.26;100720.63;5024571;28;20053;-78
2022/07/27 05:21:42;;;;;;;9.15;5.00;;;;;;;25.62;55.75;100680.25;5041254;28;20046;-77
2022/07/27 05:24:08;;;;;;;6.95;5.13;;;;;;;25.43;55.91;100659.66;5024698;28;20056;-78
2022/07/27 05:26:36;;;;;;;7.25;4.93;;;;;;;25.79;56.25;100724.72;5024666;28;20496;-78
2022/07/27 05:29:03;;;;;;;9.68;5.20;;;;;;;25.90;56.19;100731.28;5023342;28;20045;-79
2022/07/27 05:31:30;;;;;;;5.85;5.25;;;;;;;25.87;55.84;100709.16;5033381;28;20061;-77
2022/07/27 05:33:57;;;;;;;6.00;4.80;;;;;;;25.87;55.44;100698.25;5026782;28;20107;-77
2022/07/27 05:36:24;;;;;;;6.22;4.85;;;;;;;26.08;55.17;100714.00;5027124;28;20057;-78
2022/07/27 05:38:51;;;;;;;6.78;5.13;;;;;;;25.86;55.32;100647.69;5028586;28;20046;-78
2022/07/27 05:41:22;;;;;;;9.15;5.03;;;;;;;26.43;55.08;100696.81;5027167;28;20054;-76
2022/07/27 05:43:50;;;;;;;;;;;;;;;26.58;54.09;100689.03;5024728;28;20492;-76
2022/07/27 05:46:16;;;;;;;7.10;5.47;;;;;;;26.50;54.26;100659.41;5025295;28;19974;-78
2022/07/27 05:48:43;;;;;;;6.63;4.30;;;;;;;26.44;54.82;100633.16;5024953;28;20293;-77
2022/07/27 05:51:10;;;;;;;8.95;5.10;;;;;;;26.62;53.66;100640.34;5024159;28;20053;-77
2022/07/27 05:53:37;;;;;;;7.65;4.70;;;;;;;26.93;53.47;100674.47;5029123;28;20053;-79
2022/07/27 05:56:04;;;;;;;8.93;4.78;;;;;;;26.81;53.33;100665.50;5027596;28;20049;-78
2022/07/27 05:58:31;;;;;;;4.93;4.22;;;;;;;27.02;53.62;100699.44;5028095;28;20618;-77
2022/07/27 06:00:57;;;;;;;6.93;5.43;;;;;;;27.04;53.69;100713.59;5027688;28;20565;-78
2022/07/27 06:03:24;;;;;;;9.85;5.90;;;;;;;27.07;53.43;100727.59;5027894;28;20591;-77
2022/07/27 06:05:51;;;;;;;6.45;5.00;;;;;;;26.83;53.28;100717.84;5028232;28;20046;-77
2022/07/27 06:08:38;;;;;;;7.47;5.80;;;;;;;26.50;53.82;100681.19;5029297;28;20111;-77
2022/07/27 06:11:04;;;;;;;7.20;4.78;;;;;;;25.98;53.96;100607.69;5028462;28;20557;-78
2022/07/27 06:13:34;;;;;;;6.47;4.50;;;;;;;26.95;53.47;100743.16;5028786;28;20056;-78
2022/07/27 06:16:02;;;;;;;6.43;4.38;;;;;;;26.79;53.80;100705.78;5027459;28;20053;-77
2022/07/27 06:18:29;;;;;;;9.45;5.50;;;;;;;26.97;54.09;100727.41;5043959;28;20053;-77
2022/07/27 06:20:56;;;;;;;6.63;4.47;;;;;;;27.16;54.21;100746.25;5027636;28;20103;-78
2022/07/27 06:23:23;;;;;;;10.23;4.82;;;;;;;27.40;53.87;100739.66;5027117;28;20451;-76
2022/07/27 06:25:49;;;;;;;12.63;5.47;;;;;;;27.40;52.63;100739.66;5027993;28;20057;-77
2022/07/27 06:28:18;;;;;;;5.78;4.40;;;;;;;27.42;52.36;100769.41;5029914;28;20100;-76
2022/07/27 06:30:45;;;;;;;6.88;4.75;;;;;;;27.30;51.98;100769.47;5044668;28;20057;-76
2022/07/27 06:33:13;;;;;;;7.30;4.53;;;;;;;27.18;52.16;100763.19;5048779;28;20076;-77
2022/07/27 06:35:40;;;;;;;5.32;4.00;;;;;;;27.18;53.22;100749.56;5048260;28;20495;-76
2022/07/27 06:38:07;;;;;;;7.78;4.70;;;;;;;26.97;52.48;100715.69;5048152;28;20049;-76
2022/07/27 06:40:34;;;;;;;5.35;4.00;;;;;;;27.24;52.99;100762.28;5048576;28;20564;-77
2022/07/27 06:43:02;;;;;;;7.68;4.30;;;;;;;27.34;52.52;100756.19;5032082;28;20053;-77
2022/07/27 06:45:29;;;;;;;5.93;3.58;;;;;;;27.43;53.69;100720.13;5049267;28;20059;-78
2022/07/27 06:47:56;;;;;;;6.10;4.15;;;;;;;27.73;51.22;100759.06;5048379;28;20608;-76
2022/07/27 06:50:23;;;;;;;8.40;4.72;;;;;;;27.82;51.40;100769.34;5049661;28;20053;-77
2022/07/27 06:52:50;;;;;;;6.57;3.97;;;;;;;27.62;51.07;100725.31;5046131;28;20041;-77
2022/07/27 06:55:17;;;;;;;4.75;3.53;;;;;;;27.82;50.79;100755.72;5028571;28;20470;-76
2022/07/27 06:57:45;;;;;;;3.78;3.38;;;;;;;27.68;50.50;100729.81;5028283;28;20045;-76
2022/07/27 07:00:13;;;;;;;8.38;5.10;;;;;;;27.99;51.04;100765.78;5026105;28;20041;-77
2022/07/27 07:03:05;;;;;;;6.75;4.70;;;;;;;27.71;52.28;100765.56;5027829;28;20049;-77
2022/07/27 07:05:39;;;;;;;9.27;6.65;;;;;;;27.65;52.52;100757.56;5025910;28;20111;-77
2022/07/27 07:08:10;;;;;;;7.80;5.95;;;;;;;27.62;53.15;100761.63;5027837;28;20045;-77
2022/07/27 07:10:40;;;;;;;13.30;5.28;;;;;;;27.51;53.56;100757.06;5028189;28;20088;-77
2022/07/27 07:13:07;;;;;;;11.88;6.47;;;;;;;27.52;53.33;100760.59;5026669;28;20107;-77
2022/07/27 07:15:37;;;;;;;9.65;6.03;;;;;;;27.35;53.56;100755.94;5026802;28;20068;-76
2022/07/27 07:18:05;;;;;;;9.80;5.95;;;;;;;27.31;53.17;100746.59;5026933;28;20462;-77
2022/07/27 07:20:33;;;;;;;16.60;5.35;;;;;;;26.77;53.95;100664.31;5027864;28;20081;-78
2022/07/27 07:22:59;;;;;;;10.43;6.10;;;;;;;27.32;54.19;100759.16;5026400;28;20088;-76
2022/07/27 07:25:27;;;;;;;6.95;5.25;;;;;;;27.32;54.42;100742.78;5042154;28;20050;-76
2022/07/27 07:27:55;;;;;;;8.38;4.95;;;;;;;27.43;54.04;100738.34;5042785;28;20095;-76
2022/07/27 07:30:22;;;;;;;5.93;4.85;;;;;;;27.60;54.07;100746.56;5054408;28;20081;-76
2022/07/27 07:32:49;;;;;;;11.27;5.57;;;;;;;27.65;52.45;100752.94;5046062;28;20081;-77
2022/07/27 07:35:15;;;;;;;11.65;5.57;;;;;;;27.76;52.34;100753.94;5047940;28;20053;-78
2022/07/27 07:37:42;;;;;;;12.30;5.32;;;;;;;27.23;52.31;100687.03;5035815;28;20627;-77
2022/07/27 07:40:09;;;;;;;14.52;4.22;;;;;;;27.69;52.25;100758.72;5024455;28;20268;-76
2022/07/27 07:43:01;;;;;;;6.75;4.88;;;;;;;27.68;52.21;100741.53;5020292;28;20145;-76
2022/07/27 07:45:32;;;;;;;9.05;4.57;;;;;;;27.84;51.77;100761.75;5023202;28;20049;-76
2022/07/27 07:47:58;;;;;;;7.78;5.35;;;;;;;27.84;51.63;100734.47;5023018;28;20514;-78
2022/07/27 07:50:26;;;;;;;7.45;4.50;;;;;;;27.85;51.83;100738.84;5022558;28;20570;-77
2022/07/27 07:52:53;;;;;;;9.90;4.45;;;;;;;28.32;51.85;100773.94;5009941;28;20045;-78
2022/07/27 07:55:22;;;;;;;9.05;4.25;;;;;;;28.05;50.88;100724.69;5026671;28;20049;-78
2022/07/27 07:57:49;;;;;;;5.85;4.43;;;;;;;28.46;50.04;100768.19;5026700;28;20103;-78
2022/07/27 08:00:18;;;;;;;6.93;4.95;;;;;;;28.46;50.02;100762.72;5026792;28;20050;-78
2022/07/27 08:02:47;;;;;;;7.72;5.05;;;;;;;27.93;50.34;100693.94;5025526;28;20537;-78
2022/07/27 08:05:14;;;;;;;7.82;5.15;;;;;;;28.23;49.64;100759.09;5026094;28;20041;-78
2022/07/27 08:07:42;;;;;;;8.65;5.38;;;;;;;28.35;50.41;100789.00;5025538;28;20054;-78
2022/07/27 08:10:10;;;;;;;6.57;4.70;;;;;;;27.88;50.59;100721.97;5026221;28;20450;-78
2022/07/27 08:12:41;;;;;;;8.68;5.18;;;;;;;28.23;50.90;100793.72;5027106;28;20661;-78
2022/07/27 08:15:08;;;;;;;17.80;6.05;;;;;;;28.18;50.45;100777.28;5024277;28;20069;-78
2022/07/27 08:17:35;;;;;;;9.57;5.57;;;;;;;28.17;50.31;100792.00;5024882;28;20471;-78
2022/07/27 08:20:02;;;;;;;12.27;5.55;;;;;;;27.47;50.53;100690.44;5025065;28;20054;-78
2022/07/27 08:22:29;;;;;;;7.38;5.78;;;;;;;27.37;50.44;100702.00;5026682;28;20045;-77
2022/07/27 08:24:55;;;;;;;7.10;5.30;;;;;;;27.58;51.09;100757.72;5025282;28;20057;-80
2022/07/27 08:27:22;;;;;;;9.30;5.50;;;;;;;27.62;51.45;100779.84;5025746;28;20054;-78
2022/07/27 08:29:49;;;;;;;10.52;5.28;;;;;;;27.63;52.11;100782.34;5033783;28;20053;-77
2022/07/27 08:32:17;;;;;;;6.38;4.90;;;;;;;27.50;51.66;100739.00;5046329;28;20096;-78
2022/07/27 08:34:44;;;;;;;6.28;5.18;;;;;;;27.85;50.85;100777.03;5046240;28;20132;-78
2022/07/27 08:37:10;;;;;;;10.30;5.60;;;;;;;27.95;50.82;100795.47;5045979;28;20549;-79
2022/07/27 08:39:41;;;;;;;7.37;5.10;;;;;;;27.89;50.35;100780.94;5046219;28;20045;-78
2022/07/27 08:42:28;;;;;;;6.68;5.72;;;;;;;27.96;50.62;100790.84;5046321;28;20041;-79
2022/07/27 08:44:56;;;;;;;6.57;4.35;;;;;;;27.86;51.26;100769.66;5045882;28;20479;-78
2022/07/27 08:47:24;;;;;;;6.13;4.43;;;;;;;28.08;51.40;100788.84;5046701;28;20556;-78
2022/07/27 08:49:51;;;;;;;6.18;4.80;;;;;;;28.07;50.76;100771.66;5045804;28;20086;-78
2022/07/27 08:52:18;;;;;;;10.30;5.95;;;;;;;28.22;49.67;100797.53;5045674;28;20076;-79
2022/07/27 08:54:45;;;;;;;8.43;5.88;;;;;;;28.10;49.97;100792.16;5029895;28;20058;-78
2022/07/27 08:57:12;;;;;;;9.40;5.78;;;;;;;28.21;50.63;100810.38;5026807;28;20046;-78
2022/07/27 08:59:39;;;;;;;10.88;5.20;;;;;;;28.17;50.03;100781.91;5026104;28;20081;-77
2022/07/27 09:02:11;;;;;;;6.63;5.88;;;;;;;28.31;49.51;100810.53;5026280;28;20359;-78
2022/07/27 09:04:41;;;;;;;7.90;5.70;;;;;;;28.23;49.43;100800.03;5026192;28;20053;-78
2022/07/27 09:07:08;;;;;;;5.53;4.90;;;;;;;28.28;50.07;100811.03;5025907;28;20510;-78
2022/07/27 09:09:44;;;;;;;7.10;5.55;;;;;;;28.06;49.71;100769.16;5025798;28;20099;-77
2022/07/27 09:12:11;;;;;;;5.75;4.15;;;;;;;28.05;49.82;100786.63;5025826;28;20064;-78
2022/07/27 09:14:40;;;;;;;8.38;5.50;;;;;;;28.12;50.01;100765.47;5025784;28;20076;-78
2022/07/27 09:17:21;;;;;;;7.18;5.68;;;;;;;28.23;49.70;100753.63;5024873;28;20057;-77
2022/07/27 09:20:17;;;;;;;8.93;5.60;;;;;;;28.58;49.83;100788.00;5025057;28;20049;-77
2022/07/27 09:22:45;;;;;;;8.77;5.65;;;;;;;28.66;49.38;100794.94;5024791;28;20522;-78
2022/07/27 09:25:18;;;;;;;10.70;5.40;;;;;;;28.83;48.87;100805.81;5025532;28;20061;-78
2022/07/27 09:28:04;;;;;;;9.32;5.63;;;;;;;28.81;48.64;100784.22;5027603;28;20253;-78
2022/07/27 09:30:31;;;;;;;8.52;5.35;;;;;;;28.77;48.84;100796.75;5038658;28;20067;-76
2022/07/27 09:33:00;;;;;;;7.18;5.53;;;;;;;28.83;48.10;100801.19;5046745;28;20134;-77
2022/07/27 09:35:29;;;;;;;16.80;5.07;;;;;;;29.04;48.97;100793.25;5047031;28;20048;-78
2022/07/27 09:38:23;;;;;;;7.43;5.50;;;;;;;29.07;48.12;100787.31;5047165;28;20045;-78
2022/07/27 09:41:04;;;;;;;10.05;4.97;;;;;;;29.25;46.80;100797.06;5045307;28;20249;-77
2022/07/27 09:43:44;;;;;;;9.10;4.82;;;;;;;29.29;46.49;100809.97;5045922;28;20048;-79
2022/07/27 09:46:34;;;;;;;8.57;4.53;;;;;;;28.90;45.89;100735.44;5044028;28;20475;-78
2022/07/27 09:49:03;;;;;;;5.75;4.72;;;;;;;29.19;46.14;100797.00;5045823;28;20162;-78
2022/07/27 09:51:32;;;;;;;11.07;4.93;;;;;;;29.06;46.12;100786.50;5045695;28;20053;-79
2022/07/27 09:54:18;;;;;;;9.80;5.22;;;;;;;28.92;46.14;100771.53;5029475;28;20801;-78
2022/07/27 09:56:56;;;;;;;6.03;4.28;;;;;;;28.52;46.76;100737.13;5026929;28;20057;-79
2022/07/27 09:59:22;;;;;;;8.25;5.78;;;;;;;29.20;46.71;100792.38;5025210;28;20395;-78
2022/07/27 10:01:54;;;;;;;7.80;4.82;;;;;;;29.46;47.04;100793.47;5023977;28;20123;-77
2022/07/27 10:04:22;;;;;;;7.38;4.97;;;;;;;29.50;45.86;100767.28;5023629;28;20081;-79
2022/07/27 10:06:49;;;;;;;6.72;4.80;;;;;;;29.57;46.76;100789.78;5025937;28;20136;-79
2022/07/27 10:09:29;;;;;;;9.93;4.95;;;;;;;29.74;46.33;100764.25;5040103;28;20373;-77
2022/07/27 10:11:57;;;;;;;8.48;4.82;;;;;;;30.10;45.38;100797.38;5041492;28;20053;-77
2022/07/27 10:14:24;;;;;;;6.85;4.88;;;;;;;30.35;45.78;100786.66;5024480;28;20116;-77
2022/07/27 10:16:52;;;;;;;7.13;5.15;;;;;;;30.43;44.34;100788.88;5024389;28;20061;-77
2022/07/27 10:19:26;;;;;;;5.28;4.72;;;;;;;30.43;44.94;100796.28;5023618;28;20050;-78
2022/07/27 10:21:53;;;;;;;7.40;4.13;;;;;;;30.60;45.18;100779.66;5024780;28;20100;-77
2022/07/27 10:24:24;;;;;;;5.20;4.70;;;;;;;30.90;45.05;100786.41;5023544;28;20085;-78
2022/07/27 10:26:52;;;;;;;9.95;5.43;;;;;;;30.70;43.77;100789.84;5023417;28;20136;-79
2022/07/27 10:29:21;;;;;;;5.35;4.65;;;;;;;30.57;44.10;100797.47;5027521;28;20056;-78
2022/07/27 10:31:51;;;;;;;8.77;5.22;;;;;;;30.54;44.88;100791.69;5042677;28;20103;-78
2022/07/27 10:34:34;;;;;;;7.18;5.30;;;;;;;30.59;42.80;100795.28;5043528;28;20049;-77
2022/07/27 10:37:23;;;;;;;6.07;4.47;;;;;;;30.57;44.30;100775.53;5043465;28;20158;-78
2022/07/27 10:42:48;;;;;;;5.78;4.85;;;;;;;30.53;44.19;100757.16;5048249;28;20041;-79
2022/07/27 10:45:20;;;;;;;8.38;5.35;;;;;;;30.75;44.14;100777.00;5046699;28;20049;-79
2022/07/27 10:47:50;;;;;;;4.80;4.30;;;;;;;30.97;43.86;100726.69;5048047;28;20080;-78
2022/07/27 10:50:22;;;;;;;6.60;4.22;;;;;;;31.54;43.69;100772.38;5046642;28;20091;-78
2022/07/27 10:52:58;;;;;;;5.15;4.00;;;;;;;31.56;43.76;100737.25;5045636;28;20063;-78
2022/07/27 10:55:28;;;;;;;5.45;4.38;;;;;;;31.66;42.06;100781.16;5026763;28;20049;-78
2022/07/27 10:58:01;;;;;;;5.65;3.90;;;;;;;31.54;43.54;100766.88;5026955;28;20049;-78
2022/07/27 11:00:50;;;;;;;4.88;4.38;;;;;;;31.76;43.09;100768.56;5026463;28;20045;-79
2022/07/27 11:03:38;;;;;;;6.07;4.88;;;;;;;31.08;41.47;100736.59;5026891;28;20132;-78
2022/07/27 11:06:30;;;;;;;5.55;4.05;;;;;;;31.42;42.02;100741.63;5026625;28;20412;-77
2022/07/27 11:09:17;;;;;;;9.98;4.03;;;;;;;31.58;42.31;100732.34;5024736;28;20059;-78
2022/07/27 11:12:04;;;;;;;5.55;4.40;;;;;;;31.81;42.34;100760.31;5026744;28;20065;-79
2022/07/27 11:14:42;;;;;;;5.90;4.57;;;;;;;31.83;40.74;100747.97;5026081;28;20077;-78
2022/07/27 11:17:09;;;;;;;5.65;4.32;;;;;;;32.05;42.75;100757.88;5025823;28;20564;-78
2022/07/27 11:19:58;;;;;;;8.70;5.10;;;;;;;32.01;41.36;100740.28;5025989;28;20068;-78
2022/07/27 11:22:28;;;;;;;5.70;4.35;;;;;;;32.17;42.56;100746.59;5026380;28;20542;-78
2022/07/27 11:25:15;;;;;;;4.53;4.13;;;;;;;31.82;42.41;100729.00;5026147;28;20440;-78
2022/07/27 11:27:47;;;;;;;5.93;4.47;;;;;;;31.98;42.45;100740.84;5025813;28;20103;-79
2022/07/27 11:30:25;;;;;;;5.38;4.43;;;;;;;31.85;41.39;100745.78;5036685;28;20088;-79
2022/07/27 11:32:52;;;;;;;7.22;4.50;;;;;;;31.90;42.05;100698.28;5038806;28;20053;-78
2022/07/27 11:35:19;;;;;;;5.45;4.32;;;;;;;32.29;42.30;100716.91;5030687;28;20072;-78
2022/07/27 11:38:00;;;;;;;4.75;4.35;;;;;;;32.39;42.64;100729.78;5030392;28;20042;-79